createdAt,value
2018-04-01T00:01:26.214Z,8.43
2018-04-01T00:03:53.383Z,8.20
2018-04-01T00:06:20.502Z,8.37
2018-04-01T00:08:48.086Z,8.53
2018-04-01T00:11:15.262Z,8.83
2018-04-01T00:13:42.286Z,8.17
2018-04-01T00:16:09.567Z,8.10
2018-04-01T00:18:36.645Z,8.03
2018-04-01T00:21:03.703Z,8.27
2018-04-01T00:23:30.845Z,8.37
2018-04-01T00:25:57.905Z,8.70
2018-04-01T00:28:25.062Z,7.97
2018-04-01T00:30:52.295Z,7.77
2018-04-01T00:33:19.316Z,8.30
2018-04-01T00:35:46.495Z,8.30
2018-04-01T00:38:13.950Z,8.50
2018-04-01T00:40:41.197Z,8.90
2018-04-01T00:43:08.863Z,8.47
2018-04-01T00:45:36.232Z,8.83
2018-04-01T00:48:03.354Z,8.60
2018-04-01T00:50:30.795Z,8.50
2018-04-01T00:53:16.326Z,9.20
2018-04-01T00:55:43.866Z,8.07
2018-04-01T00:58:12.175Z,8.57
2018-04-01T01:00:39.525Z,8.00
2018-04-01T01:03:06.862Z,8.20
2018-04-01T01:05:34.001Z,8.90
2018-04-01T01:08:01.234Z,8.77
2018-04-01T01:10:28.615Z,8.30
2018-04-01T01:12:55.935Z,7.90
2018-04-01T01:15:23.398Z,8.80
2018-04-01T01:17:51.097Z,9.70
2018-04-01T01:20:18.430Z,8.60
2018-04-01T01:22:45.560Z,9.47
2018-04-01T01:25:13.014Z,8.53
2018-04-01T01:27:40.471Z,8.00
2018-04-01T01:30:08.136Z,8.50
2018-04-01T01:32:35.992Z,8.37
2018-04-01T01:35:03.789Z,8.53
2018-04-01T01:37:30.906Z,7.90
2018-04-01T01:39:58.315Z,8.30
2018-04-01T01:42:25.538Z,8.67
2018-04-01T01:44:52.798Z,8.50
2018-04-01T01:47:19.853Z,7.80
2018-04-01T01:49:46.958Z,8.23
2018-04-01T01:52:14.614Z,7.93
2018-04-01T01:54:42.208Z,8.67
2018-04-01T01:57:09.342Z,8.50
2018-04-01T01:59:36.558Z,8.30
2018-04-01T02:02:03.630Z,8.13
2018-04-01T02:04:31.042Z,7.97
2018-04-01T02:06:58.140Z,8.00
2018-04-01T02:09:25.586Z,8.13
2018-04-01T02:11:53.041Z,8.13
2018-04-01T02:14:20.699Z,7.77
2018-04-01T02:16:48.354Z,7.70
2018-04-01T02:19:16.022Z,8.40
2018-04-01T02:21:43.511Z,8.00
2018-04-01T02:24:10.526Z,8.10
2018-04-01T02:26:38.298Z,7.43
2018-04-01T02:29:08.096Z,7.80
2018-04-01T02:31:35.572Z,7.80
2018-04-01T02:34:08.267Z,8.37
2018-04-01T02:36:43.883Z,7.97
2018-04-01T02:39:11.169Z,8.00
2018-04-01T02:41:38.408Z,7.60
2018-04-01T02:44:05.556Z,7.23
2018-04-01T02:46:32.646Z,7.93
2018-04-01T02:49:02.086Z,8.00
2018-04-01T02:51:29.543Z,7.10
2018-04-01T02:53:57.064Z,7.50
2018-04-01T02:56:24.299Z,7.07
2018-04-01T02:58:51.541Z,7.40
2018-04-01T03:01:18.672Z,7.60
2018-04-01T03:03:45.694Z,7.13
2018-04-01T03:06:12.967Z,6.63
2018-04-01T03:08:40.231Z,7.47
2018-04-01T03:11:07.700Z,7.00
2018-04-01T03:13:34.931Z,6.77
2018-04-01T03:16:02.258Z,6.70
2018-04-01T03:18:30.066Z,6.77
2018-04-01T03:20:57.166Z,6.77
2018-04-01T03:23:24.637Z,7.23
2018-04-01T03:25:51.682Z,7.03
2018-04-01T03:28:18.859Z,6.30
2018-04-01T03:30:45.887Z,7.40
2018-04-01T03:33:13.017Z,6.83
2018-04-01T03:35:40.596Z,6.47
2018-04-01T03:38:07.781Z,6.77
2018-04-01T03:40:34.798Z,7.23
2018-04-01T03:43:01.816Z,6.60
2018-04-01T03:45:29.276Z,7.07
2018-04-01T03:47:56.523Z,6.40
2018-04-01T03:50:23.984Z,6.53
2018-04-01T03:52:51.430Z,6.77
2018-04-01T03:55:18.691Z,6.67
2018-04-01T03:57:46.274Z,6.33
2018-04-01T04:00:13.393Z,6.40
2018-04-01T04:02:40.988Z,6.77
2018-04-01T04:05:08.105Z,6.77
2018-04-01T04:07:35.575Z,6.67
2018-04-01T04:10:02.818Z,6.90
2018-04-01T04:12:30.188Z,7.47
2018-04-01T04:14:57.310Z,6.23
2018-04-01T04:17:24.579Z,6.97
2018-04-01T04:19:51.814Z,6.33
2018-04-01T04:22:19.242Z,6.53
2018-04-01T04:24:46.518Z,6.10
2018-04-01T04:27:14.182Z,7.60
2018-04-01T04:29:41.639Z,6.57
2018-04-01T04:32:09.089Z,7.00
2018-04-01T04:34:36.754Z,6.60
2018-04-01T04:37:04.414Z,6.97
2018-04-01T04:39:31.993Z,7.30
2018-04-01T04:41:59.130Z,6.80
2018-04-01T04:44:26.165Z,6.83
2018-04-01T04:46:54.173Z,6.33
2018-04-01T04:49:21.301Z,7.17
2018-04-01T04:51:48.377Z,6.53
2018-04-01T04:54:15.498Z,6.43
2018-04-01T04:56:44.387Z,7.03
2018-04-01T04:59:11.590Z,7.30
2018-04-01T05:01:38.773Z,7.20
2018-04-01T05:04:06.469Z,7.70
2018-04-01T05:06:33.814Z,7.30
2018-04-01T05:09:01.159Z,7.90
2018-04-01T05:11:28.298Z,6.83
2018-04-01T05:13:55.434Z,7.77
2018-04-01T05:16:23.089Z,7.37
2018-04-01T05:18:50.563Z,7.33
2018-04-01T05:21:17.799Z,7.47
2018-04-01T05:23:45.455Z,8.13
2018-04-01T05:26:13.123Z,7.83
2018-04-01T05:28:40.791Z,7.43
2018-04-01T05:31:08.581Z,7.83
2018-04-01T05:33:35.688Z,7.40
2018-04-01T05:36:03.279Z,7.60
2018-04-01T05:38:30.402Z,7.77
2018-04-01T05:40:57.859Z,7.83
2018-04-01T05:43:25.515Z,6.90
2018-04-01T05:46:02.086Z,6.40
2018-04-01T05:48:29.262Z,7.73
2018-04-01T05:50:56.308Z,6.73
2018-04-01T05:53:23.530Z,6.40
2018-04-01T05:55:51.230Z,6.50
2018-04-01T05:58:18.246Z,6.30
2018-04-01T06:00:45.907Z,5.60
2018-04-01T06:03:13.461Z,5.67
2018-04-01T06:05:40.611Z,5.60
2018-04-01T06:08:08.404Z,6.30
2018-04-01T06:10:35.518Z,4.20
2018-04-01T06:13:02.975Z,4.70
2018-04-01T06:15:30.569Z,5.10
2018-04-01T06:17:57.744Z,4.60
2018-04-01T06:20:24.767Z,4.50
2018-04-01T06:22:51.787Z,4.00
2018-04-01T06:25:19.442Z,3.53
2018-04-01T06:27:46.866Z,3.10
2018-04-01T06:30:14.267Z,3.00
2018-04-01T06:32:41.411Z,2.40
2018-04-01T06:35:08.575Z,2.40
2018-04-01T06:37:35.711Z,2.20
2018-04-01T06:40:02.870Z,2.00
2018-04-01T06:42:30.378Z,2.10
2018-04-01T06:44:57.618Z,1.77
2018-04-01T06:47:24.822Z,1.80
2018-04-01T06:49:52.122Z,1.67
2018-04-01T06:52:19.302Z,1.60
2018-04-01T06:54:46.578Z,1.73
2018-04-01T06:57:13.710Z,1.50
2018-04-01T06:59:41.366Z,1.60
2018-04-01T07:02:08.823Z,1.70
2018-04-01T07:04:36.486Z,1.37
2018-04-01T07:07:04.006Z,1.50
2018-04-01T07:09:31.318Z,1.73
2018-04-01T07:11:58.446Z,1.20
2018-04-01T07:14:25.917Z,1.33
2018-04-01T07:16:52.945Z,1.17
2018-04-01T07:19:20.345Z,1.20
2018-04-01T07:21:47.450Z,1.33
2018-04-01T07:24:14.966Z,1.23
2018-04-01T07:26:41.977Z,1.27
2018-04-01T07:29:09.132Z,1.00
2018-04-01T07:31:36.250Z,1.43
2018-04-01T07:34:08.233Z,1.40
2018-04-01T07:36:35.261Z,1.20
2018-04-01T07:39:02.715Z,1.17
2018-04-01T07:41:30.400Z,1.47
2018-04-01T07:43:57.621Z,1.47
2018-04-01T07:46:25.081Z,1.27
2018-04-01T07:48:52.654Z,1.30
2018-04-01T07:51:20.012Z,1.73
2018-04-01T07:53:47.654Z,1.27
2018-04-01T07:56:15.109Z,1.47
2018-04-01T07:58:42.379Z,1.53
2018-04-01T08:01:09.539Z,1.50
2018-04-01T08:03:40.958Z,1.33
2018-04-01T08:06:08.362Z,1.20
2018-04-01T08:08:35.463Z,1.20
2018-04-01T08:11:03.042Z,1.80
2018-04-01T08:13:30.497Z,1.53
2018-04-01T08:15:57.551Z,1.40
2018-04-01T08:18:24.674Z,1.90
2018-04-01T08:20:52.250Z,1.90
2018-04-01T08:23:19.380Z,1.93
2018-04-01T08:25:46.841Z,1.80
2018-04-01T08:28:14.247Z,2.10
2018-04-01T08:30:41.553Z,2.13
2018-04-01T08:33:08.581Z,2.20
2018-04-01T08:35:36.176Z,2.80
2018-04-01T08:38:03.289Z,2.50
2018-04-01T08:40:30.746Z,2.33
2018-04-01T08:42:58.157Z,2.67
2018-04-01T08:45:26.284Z,2.93
2018-04-01T08:47:53.732Z,3.97
2018-04-01T08:50:26.350Z,4.00
2018-04-01T08:52:53.363Z,4.10
2018-04-01T08:55:20.805Z,5.00
2018-04-01T08:57:48.463Z,5.50
2018-04-01T09:00:15.927Z,5.50
2018-04-01T09:02:43.775Z,6.20
2018-04-01T09:05:10.793Z,6.90
2018-04-01T09:07:37.969Z,7.27
2018-04-01T09:10:04.983Z,7.60
2018-04-01T09:12:32.181Z,8.00
2018-04-01T09:15:02.304Z,8.37
2018-04-01T09:17:29.786Z,9.17
2018-04-01T09:19:56.807Z,8.30
2018-04-01T09:22:24.271Z,9.23
2018-04-01T09:24:51.723Z,9.27
2018-04-01T09:27:19.179Z,10.17
2018-04-01T09:29:46.596Z,10.67
2018-04-01T09:32:14.092Z,11.00
2018-04-01T09:34:41.518Z,10.97
2018-04-01T09:37:08.642Z,11.87
2018-04-01T09:39:35.767Z,10.80
2018-04-01T09:42:02.782Z,11.20
2018-04-01T09:44:29.926Z,12.13
2018-04-01T09:46:57.600Z,10.73
2018-04-01T09:49:26.179Z,11.40
2018-04-01T09:51:53.277Z,11.90
2018-04-01T09:54:20.381Z,11.60
2018-04-01T09:56:50.278Z,11.80
2018-04-01T09:59:17.810Z,12.23
2018-04-01T10:01:45.328Z,11.93
2018-04-01T10:04:12.962Z,12.03
2018-04-01T10:06:40.636Z,12.23
2018-04-01T10:09:08.246Z,12.10
2018-04-01T10:11:35.781Z,13.10
2018-04-01T10:14:03.374Z,14.00
2018-04-01T10:16:32.878Z,11.90
2018-04-01T10:19:00.542Z,12.40
2018-04-01T10:21:28.215Z,13.30
2018-04-01T10:23:55.734Z,13.70
2018-04-01T10:26:26.798Z,12.33
2018-04-01T10:28:54.466Z,13.20
2018-04-01T10:31:21.987Z,14.50
2018-04-01T10:33:49.521Z,13.60
2018-04-01T10:36:17.034Z,13.43
2018-04-01T10:38:44.698Z,12.57
2018-04-01T10:41:12.251Z,13.63
2018-04-01T10:43:39.765Z,13.33
2018-04-01T10:46:07.293Z,13.40
2018-04-01T10:48:34.802Z,13.90
2018-04-01T10:51:02.482Z,13.73
2018-04-01T10:53:30.059Z,13.30
2018-04-01T10:55:57.634Z,19.13
2018-04-01T10:58:24.842Z,21.57
2018-04-01T11:00:51.870Z,23.23
2018-04-01T11:03:18.973Z,24.37
2018-04-01T11:05:46.483Z,29.43
2018-04-01T11:08:13.501Z,21.77
2018-04-01T11:10:40.522Z,27.93
2018-04-01T11:13:08.202Z,22.10
2018-04-01T11:15:35.347Z,31.20
2018-04-01T11:18:08.760Z,27.90
2018-04-01T11:20:35.878Z,20.80
2018-04-01T11:23:03.297Z,25.83
2018-04-01T11:25:30.573Z,23.73
2018-04-01T11:27:57.590Z,22.47
2018-04-01T11:30:25.067Z,20.07
2018-04-01T11:32:58.295Z,20.53
2018-04-01T11:35:25.634Z,20.53
2018-04-01T11:37:53.129Z,21.50
2018-04-01T11:40:20.371Z,20.23
2018-04-01T11:42:47.391Z,20.10
2018-04-01T11:45:15.046Z,19.90
2018-04-01T11:47:42.721Z,23.10
2018-04-01T11:50:09.764Z,20.20
2018-04-01T11:52:37.241Z,20.97
2018-04-01T11:55:04.262Z,60.03
2018-04-01T11:57:38.341Z,32.07
2018-04-01T12:00:14.426Z,32.90
2018-04-01T12:02:41.622Z,35.37
2018-04-01T12:05:14.367Z,35.70
2018-04-01T12:07:41.822Z,34.13
2018-04-01T12:10:09.299Z,29.57
2018-04-01T12:12:36.336Z,29.87
2018-04-01T12:15:03.371Z,31.33
2018-04-01T12:17:31.022Z,29.60
2018-04-01T12:19:58.479Z,27.47
2018-04-01T12:22:26.142Z,28.43
2018-04-01T12:24:53.171Z,27.60
2018-04-01T12:27:20.231Z,26.43
2018-04-01T12:29:47.740Z,23.90
2018-04-01T12:32:14.992Z,23.10
2018-04-01T13:56:38.833Z,12.43
2018-04-01T13:59:06.477Z,12.80
2018-04-01T14:01:33.536Z,11.83
2018-04-01T14:04:00.989Z,12.30
2018-04-01T14:06:28.781Z,12.87
2018-04-01T14:08:55.908Z,12.87
2018-04-01T14:11:24.632Z,11.90
2018-04-01T14:13:51.791Z,11.13
2018-04-01T14:16:18.863Z,11.40
2018-04-01T14:18:46.345Z,11.67
2018-04-01T14:21:13.370Z,10.97
2018-04-01T14:23:40.549Z,11.33
2018-04-01T14:26:07.777Z,12.37
2018-04-01T14:28:34.819Z,11.17
2018-04-01T14:31:02.270Z,10.70
2018-04-01T14:33:29.733Z,10.87
2018-04-01T14:35:57.394Z,11.07
2018-04-01T14:38:24.849Z,10.33
2018-04-01T14:40:56.646Z,9.77
2018-04-01T14:43:23.865Z,11.67
2018-04-01T14:45:51.922Z,10.10
2018-04-01T14:48:19.390Z,10.70
2018-04-01T14:50:46.430Z,9.67
2018-04-01T14:53:13.536Z,10.50
2018-04-01T14:55:40.637Z,10.57
2018-04-01T14:58:08.144Z,10.57
2018-04-01T15:00:35.167Z,9.70
2018-04-01T15:03:02.251Z,10.20
2018-04-01T15:05:29.234Z,10.57
2018-04-01T15:07:56.699Z,8.97
2018-04-01T15:10:23.952Z,9.60
2018-04-01T15:12:51.133Z,11.57
2018-04-01T15:15:18.154Z,10.83
2018-04-01T15:17:45.192Z,10.30
2018-04-01T15:20:12.456Z,11.13
2018-04-01T15:22:39.490Z,11.63
2018-04-01T15:25:07.145Z,11.53
2018-04-01T15:27:34.866Z,10.70
2018-04-01T15:30:01.984Z,12.13
2018-04-01T15:32:29.219Z,11.33
2018-04-01T15:34:56.731Z,12.83
2018-04-01T15:37:23.928Z,11.97
2018-04-01T15:39:51.402Z,13.87
2018-04-01T15:42:18.671Z,14.93
2018-04-01T15:44:45.721Z,16.40
2018-04-01T15:47:12.736Z,15.20
2018-04-01T15:49:39.989Z,16.50
2018-04-01T15:52:07.274Z,16.10
2018-04-01T15:54:34.482Z,14.97
2018-04-01T15:57:02.139Z,17.50
2018-04-01T15:59:29.607Z,17.40
2018-04-01T16:02:00.948Z,19.60
2018-04-01T16:04:30.277Z,19.40
2018-04-01T16:06:57.330Z,19.90
2018-04-01T16:09:24.547Z,18.87
2018-04-01T16:11:52.214Z,21.00
2018-04-01T16:14:19.470Z,31.30
2018-04-01T16:16:46.537Z,30.20
2018-04-01T16:19:13.780Z,36.23
2018-04-01T16:21:41.202Z,38.73
2018-04-01T16:24:08.613Z,65.00
2018-04-01T16:26:35.712Z,34.27
2018-04-01T16:29:03.157Z,41.30
2018-04-01T16:31:30.569Z,62.37
2018-04-01T16:33:57.798Z,530.33
2018-04-01T16:36:25.051Z,177.97
2018-04-01T16:38:52.375Z,153.97
2018-04-01T16:41:20.047Z,160.23
2018-04-01T16:43:47.413Z,89.13
2018-04-01T16:46:14.965Z,138.67
2018-04-01T16:48:42.213Z,83.00
2018-04-01T16:51:09.465Z,143.83
2018-04-01T16:53:36.627Z,140.20
2018-04-01T16:56:03.682Z,206.17
2018-04-01T16:58:30.874Z,199.80
2018-04-01T17:00:58.010Z,245.13
2018-04-01T17:03:26.085Z,221.80
2018-04-01T17:05:56.716Z,187.40
2018-04-01T17:08:23.983Z,173.37
2018-04-01T17:10:51.318Z,170.37
2018-04-01T17:13:18.772Z,166.20
2018-04-01T17:15:51.022Z,199.07
2018-04-01T17:18:18.716Z,321.83
2018-04-01T17:20:45.930Z,231.93
2018-04-01T17:23:13.600Z,325.00
2018-04-01T17:25:40.971Z,422.93
2018-04-01T17:28:08.428Z,399.43
2018-04-01T17:30:48.774Z,365.67
2018-04-01T17:33:17.666Z,354.87
2018-04-01T17:35:44.834Z,363.27
2018-04-01T17:38:12.177Z,368.50
2018-04-01T17:40:39.510Z,383.33
2018-04-01T17:43:06.791Z,354.17
2018-04-01T17:45:34.343Z,348.40
2018-04-01T17:48:01.684Z,352.33
2018-04-01T17:50:28.935Z,358.87
2018-04-01T17:52:56.178Z,154.77
2018-04-01T17:55:23.756Z,229.50
2018-04-01T17:57:51.085Z,204.60
2018-04-01T18:00:19.033Z,142.63
2018-04-01T18:02:46.125Z,210.37
2018-04-01T18:05:14.679Z,211.07
2018-04-01T18:07:42.097Z,222.57
2018-04-01T18:10:09.382Z,198.60
2018-04-01T18:12:36.843Z,198.87
2018-04-01T18:15:04.321Z,175.37
2018-04-01T18:17:31.553Z,166.97
2018-04-01T18:19:58.654Z,165.30
2018-04-01T18:22:25.695Z,162.90
2018-04-01T18:24:52.733Z,159.17
2018-04-01T18:27:19.804Z,153.57
2018-04-01T18:29:47.014Z,159.03
2018-04-01T18:32:14.291Z,147.60
2018-04-01T18:34:41.541Z,149.23
2018-04-01T18:37:08.736Z,137.07
2018-04-01T18:39:36.154Z,130.67
2018-04-01T18:42:03.445Z,131.83
2018-04-01T18:44:30.903Z,134.20
2018-04-01T18:46:58.353Z,129.90
2018-04-01T18:49:25.771Z,127.50
2018-04-01T18:51:53.830Z,126.23
2018-04-01T18:54:20.846Z,128.53
2018-04-01T18:56:47.905Z,125.07
2018-04-01T18:59:15.025Z,116.17
2018-04-01T19:01:42.463Z,113.83
2018-04-01T19:04:09.926Z,110.10
2018-04-01T19:06:37.654Z,112.47
2018-04-01T19:09:04.697Z,107.90
2018-04-01T19:11:31.733Z,111.97
2018-04-01T19:13:58.790Z,106.33
2018-04-01T19:16:26.437Z,99.50
2018-04-01T19:18:54.356Z,101.30
2018-04-01T19:21:22.053Z,100.97
2018-04-01T19:23:49.680Z,94.40
2018-04-01T19:26:17.615Z,96.17
2018-04-01T19:28:45.171Z,92.80
2018-04-01T19:31:12.877Z,92.13
2018-04-01T19:33:40.790Z,89.60
2018-04-01T19:36:08.610Z,83.73
2018-04-01T19:38:36.130Z,88.47
2018-04-01T19:41:03.698Z,84.10
2018-04-01T19:43:31.206Z,84.00
2018-04-01T19:45:58.740Z,83.20
2018-04-01T19:48:26.690Z,84.37
2018-04-01T19:50:54.346Z,80.37
2018-04-01T19:53:22.064Z,84.53
2018-04-01T19:55:49.997Z,83.57
2018-04-01T19:58:17.907Z,77.40
2018-04-01T20:00:45.422Z,82.37
2018-04-01T20:03:13.065Z,75.93
2018-04-01T20:05:40.716Z,77.30
2018-04-01T20:08:08.404Z,73.03
2018-04-01T20:10:36.047Z,73.60
2018-04-01T20:13:03.975Z,69.13
2018-04-01T20:15:31.580Z,71.00
2018-04-01T20:17:59.122Z,67.80
2018-04-01T20:20:26.694Z,66.30
2018-04-01T20:22:54.370Z,66.40
2018-04-01T20:25:21.928Z,65.43
2018-04-01T20:27:49.512Z,64.80
2018-04-01T20:30:17.022Z,63.17
2018-04-01T20:32:44.548Z,61.80
2018-04-01T20:35:12.062Z,58.13
2018-04-01T20:37:39.702Z,58.10
2018-04-01T20:40:08.194Z,55.97
2018-04-01T20:42:35.840Z,59.13
2018-04-01T20:45:03.344Z,53.73
2018-04-01T20:47:30.950Z,55.70
2018-04-01T20:49:58.655Z,57.90
2018-04-01T20:52:26.323Z,53.17
2018-04-01T20:54:54.143Z,55.20
2018-04-01T20:57:21.654Z,55.00
2018-04-01T20:59:49.289Z,51.10
2018-04-01T21:02:16.925Z,52.70
2018-04-01T21:04:44.583Z,50.00
2018-04-01T21:07:12.277Z,49.83
2018-04-01T21:09:40.108Z,50.00
2018-04-01T21:12:07.771Z,50.83
2018-04-01T21:14:35.467Z,46.57
2018-04-01T21:17:10.586Z,50.10
2018-04-01T21:19:38.554Z,46.63
2018-04-01T21:22:06.068Z,47.93
2018-04-01T21:24:33.859Z,45.40
2018-04-01T21:27:01.412Z,46.83
2018-04-01T21:29:29.035Z,44.93
2018-04-01T21:31:56.644Z,46.40
2018-04-01T21:34:27.367Z,43.87
2018-04-01T21:36:55.039Z,42.90
2018-04-01T21:39:23.101Z,42.67
2018-04-01T21:41:50.968Z,42.30
2018-04-01T21:44:18.621Z,42.83
2018-04-01T21:46:46.279Z,39.63
2018-04-01T21:49:13.940Z,41.93
2018-04-01T21:51:41.596Z,40.33
2018-04-01T21:54:09.163Z,40.30
2018-04-01T21:56:36.672Z,40.97
2018-04-01T21:59:04.371Z,39.63
2018-04-01T22:01:32.033Z,39.47
2018-04-01T22:03:59.702Z,40.03
2018-04-01T22:06:27.365Z,39.47
2018-04-01T22:08:55.094Z,37.23
2018-04-01T22:11:22.565Z,38.80
2018-04-01T22:13:50.093Z,37.20
2018-04-01T22:16:17.616Z,36.93
2018-04-01T22:18:45.258Z,38.13
2018-04-01T22:21:12.919Z,36.70
2018-04-01T22:23:40.434Z,35.57
2018-04-01T22:26:08.029Z,34.40
2018-04-01T22:28:35.554Z,34.60
2018-04-01T22:31:03.157Z,36.50
2018-04-01T22:33:30.812Z,34.70
2018-04-01T22:35:58.674Z,35.40
2018-04-01T22:38:27.365Z,34.00
2018-04-01T22:40:54.874Z,34.70
2018-04-01T22:43:22.478Z,33.93
2018-04-01T22:45:50.209Z,34.60
2018-04-01T22:48:17.669Z,33.57
2018-04-01T22:50:45.185Z,32.97
2018-04-01T22:53:13.530Z,32.73
2018-04-01T22:55:46.518Z,32.47
2018-04-01T22:58:14.178Z,32.40
2018-04-01T23:00:42.454Z,32.33
2018-04-01T23:03:09.963Z,30.57
2018-04-01T23:05:37.467Z,31.70
2018-04-01T23:08:05.002Z,31.70
2018-04-01T23:10:32.686Z,33.10
2018-04-01T23:13:00.215Z,31.90
2018-04-01T23:15:27.734Z,33.03
2018-04-01T23:17:55.698Z,32.43
2018-04-01T23:20:23.214Z,31.60
2018-04-01T23:22:50.791Z,30.40
2018-04-01T23:25:18.302Z,30.20
2018-04-01T23:27:45.815Z,29.47
2018-04-01T23:30:13.777Z,32.20
2018-04-01T23:32:41.295Z,33.07
2018-04-01T23:35:08.813Z,30.80
2018-04-01T23:37:36.764Z,31.50
2018-04-01T23:40:04.278Z,31.20
2018-04-01T23:42:31.870Z,31.60
2018-04-01T23:44:59.532Z,32.17
2018-04-01T23:47:27.445Z,31.40
2018-04-01T23:49:55.054Z,32.50
2018-04-01T23:52:22.786Z,31.07
2018-04-01T23:54:50.422Z,32.23
2018-04-01T23:57:18.110Z,32.20
2018-04-01T23:59:45.753Z,32.73
